sensor_id;sensor_type;location;lat;lon;timestamp;pressure;altitude;pressure_sealevel;temperature;humidity
29461;BME280;16428;47.836;35.106;2023-04-26T00:00:00;100671.97;;;11.55;100.00
29461;BME280;16428;47.836;35.106;2023-04-26T00:02:27;100676.34;;;11.56;100.00
29461;BME280;16428;47.836;35.106;2023-04-26T00:04:55;100678.69;;;11.59;100.00
29461;BME280;16428;47.836;35.106;2023-04-26T00:07:25;100685.25;;;11.56;100.00
29461;BME280;16428;47.836;35.106;2023-04-26T00:09:53;100686.16;;;11.63;100.00
29461;BME280;16428;47.836;35.106;2023-04-26T00:12:20;100682.25;;;11.51;100.00
29461;BME280;16428;47.836;35.106;2023-04-26T00:14:48;100680.59;;;11.50;100.00
29461;BME280;16428;47.836;35.106;2023-04-26T00:17:15;100686.16;;;11.63;100.00
29461;BME280;16428;47.836;35.106;2023-04-26T00:19:43;100691.09;;;11.60;100.00
29461;BME280;16428;47.836;35.106;2023-04-26T00:22:11;100697.22;;;11.54;100.00
29461;BME280;16428;47.836;35.106;2023-04-26T00:24:39;100695.91;;;11.50;100.00
29461;BME280;16428;47.836;35.106;2023-04-26T00:27:08;100697.94;;;11.48;100.00
29461;BME280;16428;47.836;35.106;2023-04-26T00:29:36;100691.50;;;11.34;100.00
29461;BME280;16428;47.836;35.106;2023-04-26T00:32:04;100699.41;;;11.36;100.00
29461;BME280;16428;47.836;35.106;2023-04-26T00:34:35;100698.47;;;11.28;100.00
29461;BME280;16428;47.836;35.106;2023-04-26T00:37:04;100695.34;;;11.40;100.00
29461;BME280;16428;47.836;35.106;2023-04-26T00:39:33;100693.19;;;11.35;100.00
29461;BME280;16428;47.836;35.106;2023-04-26T00:42:00;100696.34;;;11.39;100.00
29461;BME280;16428;47.836;35.106;2023-04-26T00:44:28;100691.72;;;11.47;100.00
29461;BME280;16428;47.836;35.106;2023-04-26T00:46:55;100693.03;;;11.51;100.00
29461;BME280;16428;47.836;35.106;2023-04-26T00:49:23;100697.09;;;11.47;100.00
29461;BME280;16428;47.836;35.106;2023-04-26T00:51:52;100686.25;;;11.41;100.00
29461;BME280;16428;47.836;35.106;2023-04-26T00:54:20;100690.03;;;11.46;100.00
29461;BME280;16428;47.836;35.106;2023-04-26T00:56:48;100692.34;;;11.35;100.00
29461;BME280;16428;47.836;35.106;2023-04-26T00:59:19;100687.31;;;11.32;100.00
29461;BME280;16428;47.836;35.106;2023-04-26T01:01:46;100683.38;;;11.42;100.00
29461;BME280;16428;47.836;35.106;2023-04-26T01:04:15;100689.97;;;11.40;100.00
29461;BME280;16428;47.836;35.106;2023-04-26T01:06:45;100684.94;;;11.37;100.00
29461;BME280;16428;47.836;35.106;2023-04-26T01:09:12;100685.94;;;11.36;100.00
29461;BME280;16428;47.836;35.106;2023-04-26T01:11:42;100678.25;;;11.33;100.00
29461;BME280;16428;47.836;35.106;2023-04-26T01:14:11;100683.56;;;11.41;100.00
29461;BME280;16428;47.836;35.106;2023-04-26T01:16:39;100681.94;;;11.32;100.00
29461;BME280;16428;47.836;35.106;2023-04-26T01:19:10;100681.50;;;11.28;100.00
29461;BME280;16428;47.836;35.106;2023-04-26T01:21:41;100678.63;;;11.30;100.00
29461;BME280;16428;47.836;35.106;2023-04-26T01:24:12;100671.34;;;11.15;100.00
29461;BME280;16428;47.836;35.106;2023-04-26T01:26:40;100677.19;;;11.19;100.00
29461;BME280;16428;47.836;35.106;2023-04-26T01:29:20;100678.38;;;11.16;100.00
29461;BME280;16428;47.836;35.106;2023-04-26T01:31:47;100676.53;;;11.17;100.00
29461;BME280;16428;47.836;35.106;2023-04-26T01:34:15;100684.44;;;11.18;100.00
29461;BME280;16428;47.836;35.106;2023-04-26T01:36:42;100670.59;;;11.07;100.00
29461;BME280;16428;47.836;35.106;2023-04-26T01:39:10;100671.50;;;10.99;100.00
29461;BME280;16428;47.836;35.106;2023-04-26T01:41:38;100664.47;;;10.98;100.00
29461;BME280;16428;47.836;35.106;2023-04-26T01:44:05;100677.59;;;10.93;100.00
29461;BME280;16428;47.836;35.106;2023-04-26T01:46:33;100671.38;;;10.92;100.00
29461;BME280;16428;47.836;35.106;2023-04-26T01:49:01;100667.19;;;10.90;100.00
29461;BME280;16428;47.836;35.106;2023-04-26T01:51:28;100661.16;;;10.88;100.00
29461;BME280;16428;47.836;35.106;2023-04-26T01:53:56;100664.34;;;10.91;100.00
29461;BME280;16428;47.836;35.106;2023-04-26T01:56:23;100668.88;;;10.91;100.00
29461;BME280;16428;47.836;35.106;2023-04-26T01:58:51;100669.84;;;10.98;100.00
29461;BME280;16428;47.836;35.106;2023-04-26T02:01:19;100671.38;;;10.92;100.00
29461;BME280;16428;47.836;35.106;2023-04-26T02:03:46;100675.31;;;11.05;100.00
29461;BME280;16428;47.836;35.106;2023-04-26T02:06:15;100678.91;;;10.97;100.00
29461;BME280;16428;47.836;35.106;2023-04-26T02:08:43;100672.88;;;10.95;100.00
29461;BME280;16428;47.836;35.106;2023-04-26T02:11:10;100677.09;;;10.89;100.00
29461;BME280;16428;47.836;35.106;2023-04-26T02:13:38;100679.97;;;10.88;100.00
29461;BME280;16428;47.836;35.106;2023-04-26T02:16:06;100675.63;;;10.87;100.00
29461;BME280;16428;47.836;35.106;2023-04-26T02:18:34;100674.44;;;10.89;100.00
29461;BME280;16428;47.836;35.106;2023-04-26T02:21:01;100666.19;;;10.91;100.00
29461;BME280;16428;47.836;35.106;2023-04-26T02:23:29;100662.59;;;10.99;100.00
29461;BME280;16428;47.836;35.106;2023-04-26T02:25:56;100664.09;;;10.78;100.00
29461;BME280;16428;47.836;35.106;2023-04-26T02:28:24;100666.47;;;10.73;100.00
29461;BME280;16428;47.836;35.106;2023-04-26T02:30:51;100663.50;;;10.91;100.00
29461;BME280;16428;47.836;35.106;2023-04-26T02:33:19;100667.19;;;10.90;100.00
29461;BME280;16428;47.836;35.106;2023-04-26T02:35:46;100669.97;;;10.82;100.00
29461;BME280;16428;47.836;35.106;2023-04-26T02:38:14;100672.09;;;10.86;100.00
29461;BME280;16428;47.836;35.106;2023-04-26T02:40:41;100668.88;;;10.91;100.00
29461;BME280;16428;47.836;35.106;2023-04-26T02:43:09;100672.25;;;10.85;100.00
29461;BME280;16428;47.836;35.106;2023-04-26T02:45:40;100679.91;;;10.73;100.00
29461;BME280;16428;47.836;35.106;2023-04-26T02:48:09;100679.88;;;10.81;100.00
29461;BME280;16428;47.836;35.106;2023-04-26T02:50:36;100678.47;;;10.85;100.00
29461;BME280;16428;47.836;35.106;2023-04-26T02:53:04;100680.09;;;10.72;100.00
29461;BME280;16428;47.836;35.106;2023-04-26T02:55:31;100688.13;;;10.80;100.00
29461;BME280;16428;47.836;35.106;2023-04-26T02:57:59;100681.41;;;10.76;100.00
29461;BME280;16428;47.836;35.106;2023-04-26T03:00:26;100683.69;;;10.87;100.00
29461;BME280;16428;47.836;35.106;2023-04-26T03:02:54;100693.47;;;11.03;100.00
29461;BME280;16428;47.836;35.106;2023-04-26T03:05:23;100696.09;;;10.88;100.00
29461;BME280;16428;47.836;35.106;2023-04-26T03:07:51;100700.47;;;10.89;100.00
29461;BME280;16428;47.836;35.106;2023-04-26T03:10:19;100696.28;;;10.86;100.00
29461;BME280;16428;47.836;35.106;2023-04-26T03:12:46;100709.72;;;10.86;100.00
29461;BME280;16428;47.836;35.106;2023-04-26T03:15:14;100698.97;;;10.86;100.00
29461;BME280;16428;47.836;35.106;2023-04-26T03:17:41;100707.44;;;10.75;100.00
29461;BME280;16428;47.836;35.106;2023-04-26T03:20:09;100703.00;;;10.60;100.00
29461;BME280;16428;47.836;35.106;2023-04-26T03:22:37;100696.03;;;10.50;100.00
29461;BME280;16428;47.836;35.106;2023-04-26T03:25:05;100691.78;;;10.56;100.00
29461;BME280;16428;47.836;35.106;2023-04-26T03:27:34;100687.13;;;10.50;100.00
29461;BME280;16428;47.836;35.106;2023-04-26T03:30:02;100690.25;;;10.62;100.00
29461;BME280;16428;47.836;35.106;2023-04-26T03:32:31;100691.84;;;10.71;100.00
29461;BME280;16428;47.836;35.106;2023-04-26T03:34:58;100693.84;;;10.77;100.00
29461;BME280;16428;47.836;35.106;2023-04-26T03:37:26;100691.69;;;10.72;100.00
29461;BME280;16428;47.836;35.106;2023-04-26T03:39:53;100697.19;;;10.79;100.00
29461;BME280;16428;47.836;35.106;2023-04-26T03:42:20;100696.31;;;10.55;100.00
29461;BME280;16428;47.836;35.106;2023-04-26T03:44:48;100706.28;;;10.70;100.00
29461;BME280;16428;47.836;35.106;2023-04-26T03:47:15;100706.22;;;10.55;100.00
29461;BME280;16428;47.836;35.106;2023-04-26T03:49:43;100701.44;;;10.42;100.00
29461;BME280;16428;47.836;35.106;2023-04-26T03:52:10;100707.16;;;10.39;100.00
29461;BME280;16428;47.836;35.106;2023-04-26T03:54:38;100704.91;;;10.51;100.00
29461;BME280;16428;47.836;35.106;2023-04-26T03:57:05;100690.25;;;10.62;100.00
29461;BME280;16428;47.836;35.106;2023-04-26T03:59:32;100690.59;;;10.58;100.00
29461;BME280;16428;47.836;35.106;2023-04-26T04:02:00;100693.00;;;10.53;100.00
29461;BME280;16428;47.836;35.106;2023-04-26T04:04:28;100686.28;;;10.49;100.00
29461;BME280;16428;47.836;35.106;2023-04-26T04:06:56;100681.59;;;10.51;100.00
29461;BME280;16428;47.836;35.106;2023-04-26T04:09:23;100693.94;;;10.61;100.00
29461;BME280;16428;47.836;35.106;2023-04-26T04:11:51;100695.47;;;10.55;100.00
29461;BME280;16428;47.836;35.106;2023-04-26T04:14:18;100698.97;;;10.64;100.00
29461;BME280;16428;47.836;35.106;2023-04-26T04:16:46;100712.34;;;10.72;100.00
29461;BME280;16428;47.836;35.106;2023-04-26T04:19:13;100699.47;;;10.36;100.00
29461;BME280;16428;47.836;35.106;2023-04-26T04:21:41;100709.88;;;10.31;100.00
29461;BME280;16428;47.836;35.106;2023-04-26T04:24:09;100712.31;;;10.49;100.00
29461;BME280;16428;47.836;35.106;2023-04-26T04:26:37;100715.31;;;10.23;100.00
29461;BME280;16428;47.836;35.106;2023-04-26T04:29:05;100714.81;;;10.50;100.00
29461;BME280;16428;47.836;35.106;2023-04-26T04:31:35;100704.38;;;10.55;100.00
29461;BME280;16428;47.836;35.106;2023-04-26T04:34:03;100715.81;;;10.80;100.00
29461;BME280;16428;47.836;35.106;2023-04-26T04:36:30;100732.44;;;10.84;100.00
29461;BME280;16428;47.836;35.106;2023-04-26T04:38:58;100725.06;;;10.78;100.00
29461;BME280;16428;47.836;35.106;2023-04-26T04:41:26;100733.53;;;10.67;100.00
29461;BME280;16428;47.836;35.106;2023-04-26T04:43:54;100732.78;;;10.81;100.00
29461;BME280;16428;47.836;35.106;2023-04-26T04:46:21;100731.81;;;10.74;100.00
29461;BME280;16428;47.836;35.106;2023-04-26T04:48:49;100721.78;;;10.68;100.00
29461;BME280;16428;47.836;35.106;2023-04-26T04:51:17;100737.06;;;10.67;100.00
29461;BME280;16428;47.836;35.106;2023-04-26T04:53:44;100734.22;;;10.91;100.00
29461;BME280;16428;47.836;35.106;2023-04-26T04:56:12;100733.91;;;10.86;100.00
29461;BME280;16428;47.836;35.106;2023-04-26T04:58:40;100722.28;;;10.94;100.00
29461;BME280;16428;47.836;35.106;2023-04-26T05:01:07;100731.44;;;11.22;100.00
29461;BME280;16428;47.836;35.106;2023-04-26T05:03:35;100735.50;;;11.18;100.00
29461;BME280;16428;47.836;35.106;2023-04-26T05:06:04;100728.13;;;10.98;100.00
29461;BME280;16428;47.836;35.106;2023-04-26T05:08:31;100728.75;;;11.22;100.00
29461;BME280;16428;47.836;35.106;2023-04-26T05:10:59;100729.69;;;11.15;100.00
29461;BME280;16428;47.836;35.106;2023-04-26T05:13:27;100726.34;;;11.13;100.00
29461;BME280;16428;47.836;35.106;2023-04-26T05:15:54;100724.63;;;11.35;100.00
29461;BME280;16428;47.836;35.106;2023-04-26T05:18:22;100725.72;;;11.25;100.00
29461;BME280;16428;47.836;35.106;2023-04-26T05:20:49;100718.31;;;11.27;100.00
29461;BME280;16428;47.836;35.106;2023-04-26T05:23:17;100723.53;;;11.44;100.00
29461;BME280;16428;47.836;35.106;2023-04-26T05:25:44;100728.38;;;11.63;100.00
29461;BME280;16428;47.836;35.106;2023-04-26T05:28:11;100729.00;;;11.88;100.00
29461;BME280;16428;47.836;35.106;2023-04-26T05:30:40;100714.97;;;11.92;100.00
29461;BME280;16428;47.836;35.106;2023-04-26T05:33:07;100719.81;;;12.12;100.00
29461;BME280;16428;47.836;35.106;2023-04-26T05:35:35;100717.06;;;12.41;100.00
29461;BME280;16428;47.836;35.106;2023-04-26T05:38:02;100719.31;;;12.23;100.00
29461;BME280;16428;47.836;35.106;2023-04-26T05:40:30;100729.34;;;12.29;100.00
29461;BME280;16428;47.836;35.106;2023-04-26T05:42:58;100715.38;;;12.04;100.00
29461;BME280;16428;47.836;35.106;2023-04-26T05:45:25;100708.00;;;12.27;100.00
29461;BME280;16428;47.836;35.106;2023-04-26T05:47:53;100706.59;;;12.31;100.00
29461;BME280;16428;47.836;35.106;2023-04-26T05:50:20;100705.28;;;12.42;100.00
29461;BME280;16428;47.836;35.106;2023-04-26T05:52:48;100704.94;;;12.30;100.00
29461;BME280;16428;47.836;35.106;2023-04-26T05:55:15;100710.09;;;12.83;100.00
29461;BME280;16428;47.836;35.106;2023-04-26T05:57:43;100713.75;;;12.75;100.00
29461;BME280;16428;47.836;35.106;2023-04-26T06:00:11;100718.50;;;13.16;100.00
29461;BME280;16428;47.836;35.106;2023-04-26T06:02:38;100741.19;;;13.43;100.00
29461;BME280;16428;47.836;35.106;2023-04-26T06:05:06;100743.16;;;13.55;100.00
29461;BME280;16428;47.836;35.106;2023-04-26T06:07:35;100749.00;;;13.59;100.00
29461;BME280;16428;47.836;35.106;2023-04-26T06:10:02;100743.75;;;13.29;100.00
29461;BME280;16428;47.836;35.106;2023-04-26T06:12:30;100751.81;;;13.51;100.00
29461;BME280;16428;47.836;35.106;2023-04-26T06:14:57;100740.28;;;13.63;100.00
29461;BME280;16428;47.836;35.106;2023-04-26T06:17:25;100741.97;;;13.64;100.00
29461;BME280;16428;47.836;35.106;2023-04-26T06:19:52;100745.47;;;13.86;100.00
29461;BME280;16428;47.836;35.106;2023-04-26T06:22:20;100738.16;;;14.15;100.00
29461;BME280;16428;47.836;35.106;2023-04-26T06:24:47;100739.25;;;14.27;100.00
29461;BME280;16428;47.836;35.106;2023-04-26T06:27:15;100748.53;;;14.52;100.00
29461;BME280;16428;47.836;35.106;2023-04-26T06:29:42;100744.78;;;14.53;100.00
29461;BME280;16428;47.836;35.106;2023-04-26T06:32:11;100738.38;;;14.67;100.00
29461;BME280;16428;47.836;35.106;2023-04-26T06:34:38;100741.34;;;14.72;100.00
29461;BME280;16428;47.836;35.106;2023-04-26T06:37:06;100743.06;;;15.00;100.00
29461;BME280;16428;47.836;35.106;2023-04-26T06:39:33;100746.81;;;14.99;100.00
29461;BME280;16428;47.836;35.106;2023-04-26T06:42:01;100753.09;;;15.26;100.00
29461;BME280;16428;47.836;35.106;2023-04-26T06:44:29;100744.16;;;15.45;100.00
29461;BME280;16428;47.836;35.106;2023-04-26T06:46:57;100742.72;;;15.62;100.00
29461;BME280;16428;47.836;35.106;2023-04-26T06:49:24;100741.03;;;15.55;100.00
29461;BME280;16428;47.836;35.106;2023-04-26T06:51:52;100744.78;;;15.54;100.00
29461;BME280;16428;47.836;35.106;2023-04-26T06:54:20;100745.00;;;15.59;100.00
29461;BME280;16428;47.836;35.106;2023-04-26T06:56:47;100744.41;;;15.70;98.30
29461;BME280;16428;47.836;35.106;2023-04-26T06:59:15;100746.47;;;15.88;95.36
29461;BME280;16428;47.836;35.106;2023-04-26T07:01:42;100746.03;;;15.91;91.33
29461;BME280;16428;47.836;35.106;2023-04-26T07:04:10;100752.72;;;15.88;88.10
29461;BME280;16428;47.836;35.106;2023-04-26T07:06:38;100751.22;;;15.92;85.84
29461;BME280;16428;47.836;35.106;2023-04-26T07:09:06;100752.56;;;16.41;85.98
29461;BME280;16428;47.836;35.106;2023-04-26T07:11:34;100739.84;;;16.35;85.66
29461;BME280;16428;47.836;35.106;2023-04-26T07:14:03;100743.22;;;16.81;79.34
29461;BME280;16428;47.836;35.106;2023-04-26T07:16:30;100747.06;;;17.05;77.79
29461;BME280;16428;47.836;35.106;2023-04-26T07:18:58;100747.53;;;17.27;78.81
29461;BME280;16428;47.836;35.106;2023-04-26T07:21:25;100752.84;;;17.15;74.53
29461;BME280;16428;47.836;35.106;2023-04-26T07:23:56;100759.19;;;17.34;72.62
29461;BME280;16428;47.836;35.106;2023-04-26T07:26:24;100746.88;;;17.32;68.06
29461;BME280;16428;47.836;35.106;2023-04-26T07:28:55;100758.03;;;17.48;69.93
29461;BME280;16428;47.836;35.106;2023-04-26T07:31:23;100741.31;;;17.76;67.26
29461;BME280;16428;47.836;35.106;2023-04-26T07:33:50;100739.06;;;17.91;65.92
29461;BME280;16428;47.836;35.106;2023-04-26T07:36:18;100739.59;;;17.82;63.81
29461;BME280;16428;47.836;35.106;2023-04-26T07:38:47;100750.25;;;17.83;63.93
29461;BME280;16428;47.836;35.106;2023-04-26T07:41:15;100748.50;;;17.89;64.86
29461;BME280;16428;47.836;35.106;2023-04-26T07:43:43;100750.03;;;17.85;63.67
29461;BME280;16428;47.836;35.106;2023-04-26T07:46:11;100746.56;;;17.96;63.88
29461;BME280;16428;47.836;35.106;2023-04-26T07:48:38;100739.41;;;17.77;64.90
29461;BME280;16428;47.836;35.106;2023-04-26T07:51:10;100740.72;;;17.92;67.13
29461;BME280;16428;47.836;35.106;2023-04-26T07:53:38;100735.59;;;18.03;67.90
29461;BME280;16428;47.836;35.106;2023-04-26T07:56:07;100740.53;;;18.12;69.60
29461;BME280;16428;47.836;35.106;2023-04-26T07:58:37;100741.56;;;17.93;73.52
29461;BME280;16428;47.836;35.106;2023-04-26T08:01:05;100741.09;;;17.78;73.21
29461;BME280;16428;47.836;35.106;2023-04-26T08:03:33;100752.13;;;17.83;73.59
29461;BME280;16428;47.836;35.106;2023-04-26T08:06:01;100749.44;;;18.01;75.31
29461;BME280;16428;47.836;35.106;2023-04-26T08:08:29;100755.19;;;18.11;75.34
29461;BME280;16428;47.836;35.106;2023-04-26T08:10:56;100743.53;;;18.22;76.18
29461;BME280;16428;47.836;35.106;2023-04-26T08:13:23;100747.31;;;18.40;76.75
29461;BME280;16428;47.836;35.106;2023-04-26T08:15:55;100742.50;;;18.23;77.75
29461;BME280;16428;47.836;35.106;2023-04-26T08:18:22;100743.09;;;18.25;78.21
29461;BME280;16428;47.836;35.106;2023-04-26T08:20:50;100742.25;;;18.43;80.18
29461;BME280;16428;47.836;35.106;2023-04-26T08:23:18;100739.72;;;18.48;81.84
29461;BME280;16428;47.836;35.106;2023-04-26T08:25:45;100739.88;;;18.83;77.48
29461;BME280;16428;47.836;35.106;2023-04-26T08:28:14;100738.63;;;18.97;76.31
29461;BME280;16428;47.836;35.106;2023-04-26T08:30:42;100734.31;;;18.78;78.10
29461;BME280;16428;47.836;35.106;2023-04-26T08:33:10;100739.47;;;18.68;80.12
29461;BME280;16428;47.836;35.106;2023-04-26T08:35:37;100734.97;;;18.62;80.20
29461;BME280;16428;47.836;35.106;2023-04-26T08:38:05;100745.50;;;18.70;78.87
29461;BME280;16428;47.836;35.106;2023-04-26T08:40:35;100741.59;;;18.96;77.58
29461;BME280;16428;47.836;35.106;2023-04-26T08:43:02;100741.03;;;19.06;79.49
29461;BME280;16428;47.836;35.106;2023-04-26T08:45:30;100743.44;;;19.25;79.25
29461;BME280;16428;47.836;35.106;2023-04-26T08:48:03;100744.41;;;19.31;78.51
29461;BME280;16428;47.836;35.106;2023-04-26T08:50:32;100743.22;;;19.27;78.61
29461;BME280;16428;47.836;35.106;2023-04-26T08:53:00;100739.56;;;19.33;77.25
29461;BME280;16428;47.836;35.106;2023-04-26T08:55:28;100734.88;;;19.10;78.30
29461;BME280;16428;47.836;35.106;2023-04-26T08:57:56;100736.84;;;19.33;78.48
29461;BME280;16428;47.836;35.106;2023-04-26T09:00:24;100741.75;;;19.13;79.03
29461;BME280;16428;47.836;35.106;2023-04-26T09:02:54;100741.59;;;18.96;77.84
29461;BME280;16428;47.836;35.106;2023-04-26T09:05:22;100736.09;;;19.26;74.72
29461;BME280;16428;47.836;35.106;2023-04-26T09:07:56;100730.25;;;19.11;75.64
29461;BME280;16428;47.836;35.106;2023-04-26T09:10:23;100728.31;;;19.41;74.78
29461;BME280;16428;47.836;35.106;2023-04-26T09:12:52;100733.47;;;19.49;73.59
29461;BME280;16428;47.836;35.106;2023-04-26T09:15:21;100732.41;;;19.09;74.71
29461;BME280;16428;47.836;35.106;2023-04-26T09:17:49;100732.31;;;19.27;73.46
29461;BME280;16428;47.836;35.106;2023-04-26T09:20:25;100736.19;;;19.49;73.26
29461;BME280;16428;47.836;35.106;2023-04-26T09:23:03;100716.97;;;19.44;73.96
29461;BME280;16428;47.836;35.106;2023-04-26T09:25:33;100712.88;;;19.77;75.86
29461;BME280;16428;47.836;35.106;2023-04-26T09:28:02;100725.25;;;20.19;73.03
29461;BME280;16428;47.836;35.106;2023-04-26T09:30:37;100727.44;;;19.82;73.23
29461;BME280;16428;47.836;35.106;2023-04-26T09:33:08;100730.88;;;19.66;73.45
29461;BME280;16428;47.836;35.106;2023-04-26T09:35:43;100719.63;;;19.86;72.34
29461;BME280;16428;47.836;35.106;2023-04-26T09:38:12;100733.25;;;19.62;73.16
29461;BME280;16428;47.836;35.106;2023-04-26T09:40:47;100720.88;;;20.18;71.98
29461;BME280;16428;47.836;35.106;2023-04-26T09:43:19;100724.97;;;20.56;70.29
29461;BME280;16428;47.836;35.106;2023-04-26T09:46:05;100712.88;;;20.52;71.91
29461;BME280;16428;47.836;35.106;2023-04-26T09:48:33;100715.53;;;20.75;69.34
29461;BME280;16428;47.836;35.106;2023-04-26T09:51:10;100720.53;;;20.26;69.85
29461;BME280;16428;47.836;35.106;2023-04-26T09:53:44;100716.78;;;20.56;70.67
29461;BME280;16428;47.836;35.106;2023-04-26T09:56:13;100732.97;;;20.74;69.33
29461;BME280;16428;47.836;35.106;2023-04-26T10:01:15;100725.53;;;20.06;72.28
29461;BME280;16428;47.836;35.106;2023-04-26T10:03:45;100740.78;;;20.30;69.18
29461;BME280;16428;47.836;35.106;2023-04-26T10:06:13;100724.19;;;20.44;69.94
29461;BME280;16428;47.836;35.106;2023-04-26T10:08:41;100731.03;;;20.86;68.23
29461;BME280;16428;47.836;35.106;2023-04-26T10:11:09;100718.97;;;20.30;68.39
29461;BME280;16428;47.836;35.106;2023-04-26T10:13:40;100714.34;;;20.43;68.47
29461;BME280;16428;47.836;35.106;2023-04-26T10:16:09;100717.81;;;21.12;66.99
29461;BME280;16428;47.836;35.106;2023-04-26T10:18:36;100724.34;;;21.39;66.83
29461;BME280;16428;47.836;35.106;2023-04-26T10:21:33;100719.38;;;21.19;63.77
29461;BME280;16428;47.836;35.106;2023-04-26T10:24:04;100722.88;;;21.03;65.14
29461;BME280;16428;47.836;35.106;2023-04-26T10:26:47;100711.78;;;21.38;64.79
29461;BME280;16428;47.836;35.106;2023-04-26T10:29:16;100716.56;;;21.31;63.54
29461;BME280;16428;47.836;35.106;2023-04-26T10:34:34;100725.59;;;21.31;63.32
29461;BME280;16428;47.836;35.106;2023-04-26T10:37:13;100716.94;;;21.06;65.49
29461;BME280;16428;47.836;35.106;2023-04-26T10:39:43;100716.56;;;21.48;62.66
29461;BME280;16428;47.836;35.106;2023-04-26T10:42:31;100720.81;;;21.10;62.86
29461;BME280;16428;47.836;35.106;2023-04-26T10:44:59;100714.41;;;21.50;62.26
29461;BME280;16428;47.836;35.106;2023-04-26T10:47:46;100721.44;;;21.79;61.04
29461;BME280;16428;47.836;35.106;2023-04-26T10:50:14;100719.19;;;21.76;61.20
29461;BME280;16428;47.836;35.106;2023-04-26T10:55:40;100708.81;;;22.12;59.71
29461;BME280;16428;47.836;35.106;2023-04-26T10:58:31;100712.75;;;21.49;59.97
29461;BME280;16428;47.836;35.106;2023-04-26T11:01:08;100697.34;;;21.42;60.67
29461;BME280;16428;47.836;35.106;2023-04-26T11:03:40;100696.69;;;21.52;59.12
29461;BME280;16428;47.836;35.106;2023-04-26T11:06:08;100703.31;;;21.56;58.99
29461;BME280;16428;47.836;35.106;2023-04-26T11:08:40;100695.34;;;21.55;56.33
29461;BME280;16428;47.836;35.106;2023-04-26T11:11:11;100695.41;;;21.76;55.26
29461;BME280;16428;47.836;35.106;2023-04-26T11:13:40;100688.03;;;21.77;54.45
29461;BME280;16428;47.836;35.106;2023-04-26T11:16:12;100685.75;;;21.69;54.01
29461;BME280;16428;47.836;35.106;2023-04-26T11:18:45;100696.94;;;21.67;52.88
29461;BME280;16428;47.836;35.106;2023-04-26T11:21:12;100691.81;;;21.93;51.13
29461;BME280;16428;47.836;35.106;2023-04-26T11:23:54;100688.44;;;22.24;51.13
29461;BME280;16428;47.836;35.106;2023-04-26T11:26:21;100677.97;;;22.65;51.51
29461;BME280;16428;47.836;35.106;2023-04-26T11:28:50;100690.94;;;22.74;48.45
29461;BME280;16428;47.836;35.106;2023-04-26T11:31:18;100679.59;;;22.39;48.60
29461;BME280;16428;47.836;35.106;2023-04-26T11:33:46;100683.78;;;22.46;47.87
29461;BME280;16428;47.836;35.106;2023-04-26T11:36:16;100673.19;;;22.77;48.26
29461;BME280;16428;47.836;35.106;2023-04-26T11:38:46;100662.84;;;22.35;49.61
29461;BME280;16428;47.836;35.106;2023-04-26T11:41:13;100678.59;;;22.72;47.90
29461;BME280;16428;47.836;35.106;2023-04-26T11:43:41;100671.75;;;22.48;48.93
29461;BME280;16428;47.836;35.106;2023-04-26T11:46:08;100679.88;;;22.86;46.68
29461;BME280;16428;47.836;35.106;2023-04-26T11:48:37;100669.41;;;22.83;47.07
29461;BME280;16428;47.836;35.106;2023-04-26T11:51:06;100652.97;;;23.47;45.23
29461;BME280;16428;47.836;35.106;2023-04-26T11:53:35;100658.56;;;23.57;44.67
29461;BME280;16428;47.836;35.106;2023-04-26T11:56:14;100655.78;;;23.52;43.83
29461;BME280;16428;47.836;35.106;2023-04-26T11:58:46;100651.16;;;24.10;42.92
29461;BME280;16428;47.836;35.106;2023-04-26T12:01:22;100643.50;;;24.12;43.82
29461;BME280;16428;47.836;35.106;2023-04-26T12:03:51;100639.56;;;23.93;42.07
29461;BME280;16428;47.836;35.106;2023-04-26T12:06:25;100645.25;;;24.28;41.45
29461;BME280;16428;47.836;35.106;2023-04-26T12:08:55;100643.13;;;24.76;40.62
29461;BME280;16428;47.836;35.106;2023-04-26T12:11:23;100647.78;;;24.55;40.76
29461;BME280;16428;47.836;35.106;2023-04-26T12:13:51;100632.91;;;24.36;41.45
29461;BME280;16428;47.836;35.106;2023-04-26T12:16:21;100637.09;;;24.69;40.87
29461;BME280;16428;47.836;35.106;2023-04-26T12:18:54;100646.19;;;24.84;40.05
29461;BME280;16428;47.836;35.106;2023-04-26T12:21:23;100648.16;;;25.19;39.58
29461;BME280;16428;47.836;35.106;2023-04-26T12:23:55;100647.00;;;25.76;38.26
29461;BME280;16428;47.836;35.106;2023-04-26T12:26:42;100643.09;;;25.92;38.24
29461;BME280;16428;47.836;35.106;2023-04-26T12:29:10;100634.88;;;26.52;37.43
29461;BME280;16428;47.836;35.106;2023-04-26T12:31:38;100635.66;;;26.57;38.03
29461;BME280;16428;47.836;35.106;2023-04-26T12:34:05;100637.53;;;27.06;36.86
29461;BME280;16428;47.836;35.106;2023-04-26T12:36:35;100628.06;;;27.17;37.42
29461;BME280;16428;47.836;35.106;2023-04-26T12:39:02;100641.75;;;26.99;36.63
29461;BME280;16428;47.836;35.106;2023-04-26T12:41:31;100635.22;;;26.40;36.95
29461;BME280;16428;47.836;35.106;2023-04-26T12:43:59;100640.34;;;25.92;36.91
29461;BME280;16428;47.836;35.106;2023-04-26T12:46:26;100633.81;;;25.38;38.41
29461;BME280;16428;47.836;35.106;2023-04-26T12:48:54;100630.81;;;25.49;38.37
29461;BME280;16428;47.836;35.106;2023-04-26T12:51:21;100633.25;;;25.61;38.86